Terminal Aerodrome Forecast
Issued by NWS

Home | Current Version | Previous Version | Text Only | Print | Product List | Glossary On
Versions: 1 2 3 4 5 6 7 8 9 10 11 12
000
FTUS46 KMTR 232320
TAFMRY
TAF
KMRY 232320Z 2400/2424 31004KT P6SM SKC
     FM240300 11003KT P6SM SKC
     FM241100 11003KT P6SM BKN050
     FM241600 11004KT P6SM BKN050
     FM242000 20007KT P6SM OVC020=

USA.gov is the U.S. government's official web portal to all federal, state and local government web resources and services.